Time;durP1;ratioP1;P1;durP2;ratioP2;P2;SDS_P1;SDS_P2;PMS_P1;PMS_P2;Temp;Humidity;BMP_temperature;BMP_pressure;BME280_temperature;BME280_humidity;BME280_pressure;Samples;Min_cycle;Max_cycle;Signal;HPM_P1;HPM_P2
2022/01/09 00:12:42;;;;;;;45.85;20.90;;;;;;;1.49;98.13;99441.06;740860;1155;113495;-73
2022/01/09 00:27:45;;;;;;;52.20;21.55;;;;;;;1.65;98.33;99428.00;740296;1158;114052;-73
2022/01/09 00:42:47;;;;;;;49.40;21.80;;;;;;;1.70;97.91;99420.75;741621;1162;114688;-76
2022/01/09 00:57:51;;;;;;;45.65;21.45;;;;;;;1.71;97.90;99411.25;740868;1158;114351;-78
2022/01/09 01:12:53;;;;;;;47.80;21.10;;;;;;;1.76;98.17;99410.02;740214;1161;114168;-77
2022/01/09 01:27:56;;;;;;;43.50;20.70;;;;;;;1.82;97.82;99398.44;740164;1157;115336;-79
2022/01/09 01:42:58;;;;;;;41.85;19.43;;;;;;;1.85;97.43;99387.91;739562;1162;114747;-77
2022/01/09 01:58:00;;;;;;;42.25;18.15;;;;;;;1.83;96.70;99369.06;739617;1155;113825;-78
2022/01/09 02:13:04;;;;;;;39.60;19.05;;;;;;;1.60;96.48;99362.84;739965;1156;113769;-79
2022/01/09 02:28:08;;;;;;;35.10;17.33;;;;;;;1.37;95.62;99356.56;739833;1158;113746;-78
2022/01/09 02:43:10;;;;;;;43.48;19.70;;;;;;;0.94;95.35;99336.89;739478;1155;113853;-78
2022/01/09 02:58:12;;;;;;;48.30;20.00;;;;;;;0.58;94.98;99333.08;739683;1157;113685;-77
2022/01/09 03:13:15;;;;;;;48.73;20.20;;;;;;;0.20;94.36;99318.19;739341;1158;115267;-78
2022/01/09 03:28:17;;;;;;;54.60;22.05;;;;;;;-0.13;93.69;99306.38;740231;1162;114073;-78
2022/01/09 03:43:19;;;;;;;50.98;22.48;;;;;;;-0.25;94.73;99313.95;739930;1162;113651;-76
2022/01/09 03:58:21;;;;;;;61.73;26.97;;;;;;;-0.40;94.79;99299.37;739652;1162;113844;-78
2022/01/09 04:13:23;;;;;;;61.17;27.20;;;;;;;-0.49;95.89;99284.44;740877;1158;115284;-79
2022/01/09 04:28:25;;;;;;;105.15;42.35;;;;;;;-0.60;95.47;99278.16;741714;1158;114640;-78
2022/01/09 04:43:28;;;;;;;75.67;30.63;;;;;;;-0.66;96.46;99275.95;739196;1157;115472;-77
2022/01/09 04:58:30;;;;;;;173.93;61.35;;;;;;;-0.73;95.69;99269.48;739931;1162;115006;-78
2022/01/09 05:13:34;;;;;;;155.23;51.85;;;;;;;-0.92;95.48;99252.51;740141;1162;113907;-78
2022/01/09 05:28:36;;;;;;;145.95;51.35;;;;;;;-0.95;96.78;99234.67;740328;1162;114665;-74
2022/01/09 05:43:40;;;;;;;237.80;60.45;;;;;;;-1.17;96.00;99241.02;739961;1162;113811;-74
2022/01/09 05:58:42;;;;;;;292.30;80.85;;;;;;;-1.22;96.18;99250.73;740341;1162;113814;-73
2022/01/09 06:13:44;;;;;;;124.93;40.98;;;;;;;-1.19;96.41;99255.73;739833;1162;115112;-73
2022/01/09 06:28:47;;;;;;;150.90;58.20;;;;;;;-1.29;96.81;99258.88;739720;1162;115064;-74
2022/01/09 06:43:49;;;;;;;784.98;255.73;;;;;;;-1.26;96.77;99276.74;740625;1157;114361;-80
2022/01/09 06:58:51;;;;;;;326.40;97.08;;;;;;;-1.21;96.25;99270.41;739750;1155;114160;-81
2022/01/09 07:13:54;;;;;;;185.40;58.58;;;;;;;-1.21;95.71;99274.75;739751;1157;113926;-82
2022/01/09 07:28:57;;;;;;;285.73;76.83;;;;;;;-1.11;95.80;99288.77;740159;1162;114920;-81
2022/01/09 07:43:59;;;;;;;123.13;45.05;;;;;;;-1.00;95.08;99293.31;740402;1158;116141;-75
2022/01/09 07:59:01;;;;;;;129.17;43.87;;;;;;;-0.87;94.99;99304.58;739987;1158;113956;-74
2022/01/09 08:14:03;;;;;;;164.88;53.68;;;;;;;-0.53;94.68;99314.70;739827;1158;115702;-75
2022/01/09 08:29:06;;;;;;;193.93;63.93;;;;;;;0.10;94.64;99311.00;740074;1157;113923;-83
2022/01/09 08:44:08;;;;;;;178.68;57.65;;;;;;;0.93;94.20;99317.97;740989;1162;114182;-78
2022/01/09 08:59:12;;;;;;;135.85;51.13;;;;;;;1.64;92.79;99322.91;741042;1158;113578;-79
2022/01/09 09:14:20;;;;;;;114.43;45.15;;;;;;;2.61;91.23;99333.61;742273;1162;115010;-79
2022/01/09 09:29:23;;;;;;;380.75;128.03;;;;;;;3.49;89.92;99335.11;743182;1162;113963;-79
2022/01/09 09:44:25;;;;;;;171.50;71.40;;;;;;;4.11;88.93;99320.13;740039;1162;113980;-78
2022/01/09 09:59:36;;;;;;;198.40;81.13;;;;;;;4.57;84.13;99326.14;741350;1155;113555;-79
2022/01/09 10:14:41;;;;;;;120.53;50.43;;;;;;;5.16;83.58;99304.14;740805;1162;113509;-79
2022/01/09 10:29:50;;;;;;;176.85;59.28;;;;;;;5.82;82.83;99297.88;743267;1155;114291;-79
2022/01/09 10:44:52;;;;;;;106.90;40.30;;;;;;;6.34;80.85;99295.23;742130;1155;114682;-90
2022/01/09 11:00:13;;;;;;;185.83;63.20;;;;;;;6.57;78.53;99274.17;743795;1162;113422;-90
2022/01/09 11:15:19;;;;;;;192.75;66.80;;;;;;;6.76;78.14;99281.22;743895;1162;114184;-78
2022/01/09 11:30:50;;;;;;;112.18;43.23;;;;;;;7.57;77.03;99253.99;741755;1162;114224;-78
2022/01/09 11:46:02;;;;;;;128.83;50.23;;;;;;;7.87;75.11;99247.72;743295;1155;114491;-78
2022/01/09 12:01:06;;;;;;;230.65;76.88;;;;;;;8.12;73.61;99243.63;740909;1162;113822;-78
2022/01/09 12:16:29;;;;;;;120.55;47.03;;;;;;;8.24;71.74;99251.28;739878;1162;114216;-78
2022/01/09 12:31:32;;;;;;;283.68;101.90;;;;;;;8.59;71.63;99254.95;739811;1162;114109;-78
2022/01/09 12:46:39;;;;;;;279.33;113.50;;;;;;;8.37;70.27;99246.53;739528;1156;113979;-78
2022/01/09 13:01:47;;;;;;;124.90;47.47;;;;;;;8.98;68.83;99245.02;740450;1162;114589;-79
2022/01/09 13:16:49;;;;;;;80.20;35.67;;;;;;;12.91;64.91;99268.59;739592;1155;114101;-78
2022/01/09 13:32:06;;;;;;;101.83;42.83;;;;;;;11.76;60.45;99272.53;742507;1156;114249;-78
2022/01/09 13:47:14;;;;;;;87.23;38.50;;;;;;;10.57;60.44;99277.22;741089;1158;114085;-80
2022/01/09 14:02:18;;;;;;;269.57;73.43;;;;;;;7.53;61.37;99284.76;740796;1162;114757;-80
2022/01/09 14:17:35;;;;;;;201.50;68.73;;;;;;;5.33;63.06;99307.94;740178;1158;114995;-80
2022/01/09 14:32:38;;;;;;;268.78;91.60;;;;;;;4.25;64.19;99313.86;741669;1162;113620;-79
2022/01/09 14:47:40;;;;;;;308.65;92.58;;;;;;;3.59;66.29;99346.46;740119;1162;113637;-81
2022/01/09 15:02:42;;;;;;;370.48;126.95;;;;;;;3.09;68.33;99364.75;739765;1162;113750;-80
2022/01/09 15:17:47;;;;;;;190.50;63.55;;;;;;;2.66;68.85;99380.73;739361;1158;113989;-80
2022/01/09 15:32:52;;;;;;;430.35;154.83;;;;;;;2.38;70.58;99389.59;740076;1155;113844;-80
2022/01/09 15:47:54;;;;;;;170.88;71.28;;;;;;;2.06;72.09;99406.34;740111;1162;114595;-80
2022/01/09 16:02:57;;;;;;;186.03;62.57;;;;;;;1.86;73.25;99405.09;740428;1162;115102;-81
2022/01/09 16:17:59;;;;;;;172.10;59.35;;;;;;;1.69;74.12;99429.46;739888;1158;113781;-83
2022/01/09 16:33:04;;;;;;;209.27;67.97;;;;;;;1.58;75.43;99453.40;742745;1162;113849;-83
2022/01/09 16:48:07;;;;;;;127.68;49.43;;;;;;;1.52;76.06;99466.73;744159;1162;113696;-85
2022/01/09 17:03:09;;;;;;;130.58;53.15;;;;;;;1.42;76.98;99487.15;743392;1155;113717;-80
2022/01/09 17:18:13;;;;;;;111.50;44.48;;;;;;;1.27;77.38;99513.97;741455;1155;113748;-79
2022/01/09 17:33:15;;;;;;;140.67;50.67;;;;;;;1.10;78.77;99528.73;741264;1157;113573;-79
2022/01/09 17:48:18;;;;;;;151.98;53.48;;;;;;;0.91;78.34;99529.03;741665;1162;113885;-78
2022/01/09 18:03:21;;;;;;;110.20;43.83;;;;;;;0.74;79.67;99555.86;742827;1158;113785;-79
2022/01/09 18:18:23;;;;;;;123.23;46.60;;;;;;;0.61;80.48;99576.39;742544;1157;114473;-78
2022/01/09 18:33:26;;;;;;;113.30;44.98;;;;;;;0.58;81.17;99597.23;742268;1156;113847;-78
2022/01/09 18:48:28;;;;;;;158.13;56.13;;;;;;;0.51;81.49;99615.73;740270;1155;114232;-77
2022/01/09 19:03:33;;;;;;;119.13;43.60;;;;;;;0.43;82.10;99640.20;740284;1155;114163;-77
2022/01/09 19:18:37;;;;;;;298.53;88.30;;;;;;;0.33;81.89;99650.23;739897;1157;113798;-76
2022/01/09 19:33:40;;;;;;;177.50;60.03;;;;;;;0.19;82.17;99660.47;740508;1158;113415;-77
2022/01/09 19:48:42;;;;;;;214.60;68.83;;;;;;;0.06;82.93;99683.52;740479;1162;114484;-78
2022/01/09 20:03:44;;;;;;;223.50;71.68;;;;;;;0.10;83.65;99703.07;741265;1155;113691;-79
2022/01/09 20:18:48;;;;;;;120.58;46.40;;;;;;;0.06;83.52;99719.63;743933;1155;114079;-79
2022/01/09 20:33:51;;;;;;;212.78;61.58;;;;;;;-0.04;84.33;99749.39;741059;1162;113672;-78
2022/01/09 20:48:54;;;;;;;180.40;54.78;;;;;;;-0.14;83.38;99755.97;740567;1158;114476;-78
2022/01/09 21:03:58;;;;;;;196.88;58.55;;;;;;;-0.17;84.79;99782.75;740687;1155;114506;-80
2022/01/09 21:19:01;;;;;;;160.03;54.43;;;;;;;-0.24;85.42;99802.86;740254;1155;113606;-80
2022/01/09 21:34:03;;;;;;;217.00;65.65;;;;;;;-0.22;84.65;99823.40;741625;1154;114009;-79
2022/01/09 21:49:07;;;;;;;255.20;66.73;;;;;;;-0.29;84.75;99838.34;739973;1155;114066;-79
2022/01/09 22:04:11;;;;;;;302.23;69.53;;;;;;;-0.38;85.83;99862.83;742335;1162;115541;-81
2022/01/09 22:19:17;;;;;;;447.60;98.33;;;;;;;-0.39;86.39;99881.77;741060;1155;114154;-79
2022/01/09 22:34:20;;;;;;;168.95;48.93;;;;;;;-0.46;86.88;99900.19;740929;1155;113385;-79
2022/01/09 22:49:33;;;;;;;198.93;52.58;;;;;;;-0.45;86.08;99914.74;742512;1155;114951;-81
2022/01/09 23:04:35;;;;;;;101.18;36.33;;;;;;;-0.49;85.82;99949.30;740295;1162;114104;-81
2022/01/09 23:19:38;;;;;;;84.63;32.13;;;;;;;-0.73;85.11;99978.71;741173;1155;114046;-81
2022/01/09 23:34:40;;;;;;;201.10;57.10;;;;;;;-0.88;86.65;99990.56;741413;1155;113913;-80
